MET: Información y Pronóstico Aeronáutico

MET: Información y Pronóstico Aeronáutico

///////////////////////////////////////////////////////////////////////////////////////////////////////////////////////////////////////////////////////////////////////////////////////////////////////////////////////////////////////////////

26 DE SEPTIEMBRE 2017

INFORMACION METEOROLOGICA AERONAUTICA (METAR) 13:00 UTC

Aeropuerto AEROPARQUE J. NEWBERY

26 - 13:00 METAR SABE 261300Z 14018KT 9999 BKN023 BKN100 15/09 Q1020 =

Aeropuerto BAHIA BLANCA

26 - 13:00 METAR SAZB 261300Z 09013KT 9999 SCT015 OVC060 10/08 Q1027 =

Aeropuerto BARILOCHE

26 - 13:00 METAR SAZS 261300Z 10004KT 070V150 CAVOK 05/M08 Q1025 =

Aeropuerto EL CALAFATE

26 - 13:00 METAR SAWC 261300Z 27013KT 9999 FEW040 08/M03 Q1020 =

Aeropuerto EZEIZA

26 - 13:00 METAR SAEZ 261300Z 13015G25KT 9999 BKN045 BKN200 15/08 Q1020 =

Aeropuerto IGUAZU/CATARATAS

26 - 13:00 METAR SARI 261300Z 05008KT CAVOK 26/18 Q1016 =

Aeropuerto JUJUY

26 - 13:00 METAR SASJ 261300Z 09003KT 8000 NSC 25/16 Q1017 =

Aeropuerto MAR DEL PLATA

26 - 13:00 METAR SAZM 261300Z 14009KT 7000 -RA OVC032 08/05 Q1027 =

Aeropuerto MENDOZA

26 - 13:00 METAR SAME 261300Z 14007KT 9999 OVC040 14/05 Q1020 =

Aeropuerto CHAPELCO

26 - 13:00 METAR SAZY 261300Z 07005KT 9999 FEW100 02/M04 Q1023 =

Aeropuerto COMODORO RIVADAVIA

26 - 13:00 METAR SAVC 261300Z 29014KT CAVOK 09/M02 Q1027 =

Aeropuerto CORDOBA

26 - 13:00 METAR SACO 261300Z 03004KT 6000 BKN020 21/17 Q1016 =

Aeropuerto NEUQUEN

26 - 13:00 METAR SAZN 261300Z 09008KT 9999 BKN045 SCT100 10/00 Q1026 =

Aeropuerto POSADAS

26 - 13:00 METAR SARP 261300Z 05005KT CAVOK 27/19 Q1016 =

Aeropuerto RESISTENCIA

26 - 13:00 METAR SARE 261300Z 03007KT 8000 NSC 27/19 Q1014 =

Aeropuerto RIO GRANDE

26 - 13:00 METAR SAWE 261300Z 30027KT CAVOK 06/02 Q1009 =

Aeropuerto ROSARIO

26 - 13:00 METAR SAAR 261300Z 09010KT 9999 SCT008 BKN010 OVC012 18/15 Q1017 =

Aeropuerto SALTA

26 - 13:00 METAR SASA 261300Z 36007KT 7000 FEW020 23/13 Q1018 =

Aeropuerto SAN FERNANDO

26 - 13:00 METAR SADF 261300Z 11014KT 9999 OVC020 15/09 Q1020 =

Aeropuerto SANTA ROSA

26 - 13:00 METAR SAZR 261300Z 09007KT 9999 BKN006 OVC040 08/08 Q1025 =

Aeropuerto TRELEW

26 - 13:00 METAR SAVT 261300Z 25005KT CAVOK 08/M07 Q1028 =

Aeropuerto TUCUMAN

26 - 13:00 METAR SANT 261300Z 23007KT 5000 NSC 25/16 Q1014 =

Aeropuerto USHUAIA

26 - 13:00 METAR SAWH 261300Z 14006KT 9999 BKN040 BKN100 05/01 Q1005 =

PRONOSTICO DE AERODROMO (TAF) 11:00 UTC

Estación AEROPARQUE J. NEWBERY

26 - 11:00 TAF SABE 261100Z 2612/2712 15015G25KT 9999 FEW012 BKN015 TX16/2618Z TN12/2709Z PROB30 TEMPO 2615/2618 7000 -RA BKN012 BKN050 BECMG 2618/2622 16020G30KT BECMG 2701/2703 14020KT 4000 RA BKN010 BKN050 =

Estación BAHIA BLANCA

26 - 11:00 TAF SAZB 261100Z 2612/2712 09005KT 9999 SCT025 OVC040 TX13/2618Z TN04/2709Z BECMG 2618/2621 14010KT SCT030 BKN050 BECMG 2701/2703 07005KT CAVOK BECMG 2708/2710 VRB03KT 5000 BR =

Estación BARILOCHE

26 - 11:00 TAF SAZS 261100Z 2612/2712 14010KT CAVOK TX11/2618Z TNM03/2612Z BECMG 2616/2618 14015KT BECMG 2620/2622 07010KT BECMG 2704/2705 VRB03KT 9999 SCT020 SCT100 =

Estación EL CALAFATE

26 - 11:00 TAF SAWC 261100Z 2612/2712 26010KT 9999 FEW030 SCT090 TX09/2618Z TN03/2611Z BECMG 2621/63 VRB03KT =

Estación EZEIZA

26 - 11:00 TAF SAEZ 261100Z 2612/2712 14015KT 9999 SCT015 BKN020 TX16/2618Z TN11/2709Z PROB30 TEMPO 2615/2618 7000 -RA BKN012 BKN050 BECMG 2618/2622 16020G30KT BECMG 2701/2703 14015KT 4000 RA BKN010 BKN050 =

Estación IGUAZU/CATARATAS

26 - 11:00 TAF SARI 261100Z 2612/2712 05005KT CAVOK TX31/2618Z TN18/2710Z BECMG 2615/2617 9999 SCT030 FEW040TCU BECMG 2621/2623 CAVOK PROB30 2707/2711 VRB03KT 3000 BR =

Estación JUJUY

26 - 11:00 TAF SASJ 261100Z 2612/2712 VRB04KT 9999 SCT030 TX32/2618Z TN17/2710Z BECMG 2700/2703 05005KT 9999 BKN020 FEW040TCU PROB40 TEMPO 2706/2709 09005KT 4000 SHRA VCTS SCT010 OVC020 FEW040CB =

Estación MAR DEL PLATA

26 - 11:00 TAF SAZM 261100Z 2612/2712 16015KT 2500 RA OVC032 TX11/2618Z TN05/2710Z BECMG 2618/2621 16020KT 6000 RADZ BKN035 OVC100 TEMPO 2700/2703 16015KT 8000 SCT010 BKN100 BECMG 2709/2712 18015KT 9999 SCT010 FEW025TCU =

Estación MENDOZA

26 - 11:00 TAF SAME 261100Z 2612/2712 16010KT 9999 BKN030 SCT070 TX18/2620Z TN08/2710Z =

Estación CHAPELCO

26 - 11:00 TAF SAZY 261100Z 2612/2712 16010KT CAVOK TX11/2618Z TNM04/2612Z BECMG 2616/2618 09010KT BKN025 BECMG 2705/2707 14005KT BKN015 =

Estación COMODORO RIVADAVIA

26 - 11:00 TAF SAVC 261100Z 2612/2712 29010KT CAVOK TX14/2618Z TN06/2711Z BECMG 2614/2616 VRB03KT =

Estación CORDOBA

26 - 11:00 TAF SACO 261100Z 2612/2712 07005KT 5000 BR OVC018 TX24/2618Z TN15/2710Z PROB30 TEMPO 2614/2616 05010KT 3000 RA VCTS SCT008 BKN020 FEW040CB BECMG 2700/2703 18010KT 0800 DZ OVC008 =

Estación NEUQUEN

26 - 11:00 TAF SAZN 261100Z 2612/2712 12010KT BKN035 BKN100 TX14/2618Z TN07/2710Z PROB30 TEMPO 2616/2622 05015KT 7000 RA BKN020 BKN050 BECMG 2622/2623 07015KT 9999 BKN030 BECMG 2708/2711 SCT030 SCT100 =

Estación POSADAS

26 - 11:00 TAF SARP 261100Z 2612/2712 09005KT CAVOK TX33/2618Z TN20/2710Z BECMG 2615/2617 9999 SCT030 FEW040TCU BECMG 2621/2623 CAVOK PROB30 2707/2711 VRB03KT 3000 BR =

Estación RESISTENCIA

26 - 11:00 TAF SARE 261100Z 2612/2712 11005KT CAVOK TX33/2618Z TN22/2710Z =

Estación RIO GRANDE

26 - 11:00 TAF SAWE 261100Z 2612/2712 30020G30KT CAVOK TX09/2618Z TN03/2711Z BECMG 2614/2616 30025G40KT 9999 BKN015 BECMG 2703/2705 27020G30KT =

Estación ROSARIO

26 - 11:00 TAF SAAR 261100Z 2612/2712 14015KT 9999 SCT008 BKN010 BKN090 TX24/2618Z TN11/2710Z PROB40 TEMPO 2613/2620 7000 SHRA BKN012 FEW040CB BKN050 BECMG 2620/2622 16020KT 5000 RA SCT008 BKN010 BKN040 TEMPO 2701/2706 3000 TSRA BKN008 FEW035CB OVC050 BECMG 2707/2709 18015KT 6000 RADZ BKN008 BKN045 =

Estación SALTA

26 - 11:00 TAF SASA 261100Z 2612/2712 32005KT 9999 SCT020 TX28/2618Z TN16/2710Z BECMG 2700/2703 05005KT 9999 BKN020 FEW040TCU PROB40 TEMPO 2706/2709 09005KT 4000 SHRA VCTS SCT010 OVC020 FEW040CB =

Estación SAN FERNANDO

26 - 11:15 SADF 261115Z 2612/2712 11015G25KT 9999 OVC015 TX17/2618Z TN11/2710Z BECMG 2612/2614 8000 -DZRA BKN010 OVC050 BECMG 2616/2618 5000 RA BKN008 OVC050 PROB30 TEMPO 2702/2708 6000 SHRA BKN008 FEW040CB OVC050 BECMG 2709/2711 18015KT =

Estación SANTA ROSA

26 - 11:00 TAF SAZR 261100Z 2612/2712 09015KT 3000 RA BKN003 OVC040 TX12/2618Z TN04/2709Z BECMG 2615/2617 12010KT 8000 BKN010 OVC025 BECMG 2621/2623 16010KT 9999 SCT025 BECMG 2707/2709 16005KT 5000 BR BKN010 BECMG 2709/2711 1500 BR =

Estación TRELEW

26 - 11:00 TAF SAVT 261100Z 2612/2712 32010KT CAVOK TX16/2618Z TN10/2711Z BECMG 2618/2620 36015KT =

Estación TUCUMAN

26 - 11:00 TAF SANT 261100Z 2612/2712 34005KT 4000 FU BKN035 TX35/2618Z TN20/2710 PROB30 TEMPO 2618/2621 VRB02KT 2000 FU BKN020 PROB40 TEMPO 2706/2709 09005KT 5000 SHRA VCTS SCT010 OVC020 FEW040CB =

Estación USHUAIA

26 - 11:00 TAF SAWH 261100Z 2612/2712 30015KT 9999 BKN030 TX08/2618Z TN00/2711Z BECMG 2614/2616 30020G35KT SHRA BECMG 2619/2621 25025G35KT RA BKN020 OVC045 =